sensor_id;sensor_type;location;lat;lon;timestamp;P1;durP1;ratioP1;P2;durP2;ratioP2
12770;SDS011;6449;47.666;9.160;2022-09-28T00:00:34;2.37;;;0.73;;
12770;SDS011;6449;47.666;9.160;2022-09-28T00:05:31;1.33;;;0.80;;
12770;SDS011;6449;47.666;9.160;2022-09-28T00:10:24;0.80;;;0.70;;
12770;SDS011;6449;47.666;9.160;2022-09-28T00:15:18;1.10;;;0.80;;
12770;SDS011;6449;47.666;9.160;2022-09-28T00:20:11;1.10;;;0.90;;
12770;SDS011;6449;47.666;9.160;2022-09-28T00:25:08;1.53;;;0.80;;
12770;SDS011;6449;47.666;9.160;2022-09-28T00:30:02;0.93;;;0.77;;
12770;SDS011;6449;47.666;9.160;2022-09-28T00:34:56;1.10;;;0.80;;
12770;SDS011;6449;47.666;9.160;2022-09-28T00:39:49;2.67;;;0.90;;
12770;SDS011;6449;47.666;9.160;2022-09-28T00:44:46;1.90;;;0.80;;
12770;SDS011;6449;47.666;9.160;2022-09-28T00:49:42;0.83;;;0.70;;
12770;SDS011;6449;47.666;9.160;2022-09-28T00:54:41;0.57;;;0.57;;
12770;SDS011;6449;47.666;9.160;2022-09-28T00:59:38;1.60;;;1.07;;
12770;SDS011;6449;47.666;9.160;2022-09-28T01:04:34;0.70;;;0.70;;
12770;SDS011;6449;47.666;9.160;2022-09-28T01:09:29;1.73;;;0.77;;
12770;SDS011;6449;47.666;9.160;2022-09-28T01:14:24;1.27;;;0.80;;
12770;SDS011;6449;47.666;9.160;2022-09-28T01:19:24;0.87;;;0.70;;
12770;SDS011;6449;47.666;9.160;2022-09-28T01:24:41;0.90;;;0.80;;
12770;SDS011;6449;47.666;9.160;2022-09-28T01:29:42;2.13;;;0.90;;
12770;SDS011;6449;47.666;9.160;2022-09-28T01:34:45;2.67;;;0.70;;
12770;SDS011;6449;47.666;9.160;2022-09-28T01:39:49;1.17;;;0.87;;
12770;SDS011;6449;47.666;9.160;2022-09-28T01:44:49;1.37;;;0.80;;
12770;SDS011;6449;47.666;9.160;2022-09-28T01:49:49;0.80;;;0.80;;
12770;SDS011;6449;47.666;9.160;2022-09-28T01:54:50;1.10;;;0.70;;
12770;SDS011;6449;47.666;9.160;2022-09-28T02:15:22;1.03;;;0.80;;
12770;SDS011;6449;47.666;9.160;2022-09-28T02:20:25;1.80;;;0.73;;
12770;SDS011;6449;47.666;9.160;2022-09-28T02:25:22;1.73;;;0.90;;
12770;SDS011;6449;47.666;9.160;2022-09-28T02:30:27;1.17;;;0.73;;
12770;SDS011;6449;47.666;9.160;2022-09-28T02:35:22;0.50;;;0.50;;
12770;SDS011;6449;47.666;9.160;2022-09-28T02:40:17;1.10;;;0.77;;
12770;SDS011;6449;47.666;9.160;2022-09-28T02:45:14;1.87;;;0.90;;
12770;SDS011;6449;47.666;9.160;2022-09-28T02:55:30;1.10;;;0.70;;
12770;SDS011;6449;47.666;9.160;2022-09-28T03:00:44;0.67;;;0.67;;
12770;SDS011;6449;47.666;9.160;2022-09-28T03:05:46;0.40;;;0.40;;
12770;SDS011;6449;47.666;9.160;2022-09-28T03:10:53;2.83;;;0.70;;
12770;SDS011;6449;47.666;9.160;2022-09-28T03:16:04;0.67;;;0.67;;
12770;SDS011;6449;47.666;9.160;2022-09-28T03:21:00;0.90;;;0.80;;
12770;SDS011;6449;47.666;9.160;2022-09-28T03:25:55;2.67;;;1.00;;
12770;SDS011;6449;47.666;9.160;2022-09-28T03:30:49;1.17;;;0.80;;
12770;SDS011;6449;47.666;9.160;2022-09-28T03:35:46;0.97;;;0.80;;
12770;SDS011;6449;47.666;9.160;2022-09-28T03:40:40;0.97;;;0.70;;
12770;SDS011;6449;47.666;9.160;2022-09-28T03:45:34;1.70;;;0.80;;
12770;SDS011;6449;47.666;9.160;2022-09-28T03:50:27;3.43;;;0.77;;
12770;SDS011;6449;47.666;9.160;2022-09-28T03:55:22;1.47;;;0.83;;
12770;SDS011;6449;47.666;9.160;2022-09-28T04:00:15;2.30;;;1.30;;
12770;SDS011;6449;47.666;9.160;2022-09-28T04:05:09;2.00;;;1.33;;
12770;SDS011;6449;47.666;9.160;2022-09-28T04:10:02;0.80;;;0.60;;
12770;SDS011;6449;47.666;9.160;2022-09-28T04:14:57;1.50;;;1.27;;
12770;SDS011;6449;47.666;9.160;2022-09-28T04:19:50;0.90;;;0.90;;
12770;SDS011;6449;47.666;9.160;2022-09-28T04:24:44;2.57;;;1.50;;
12770;SDS011;6449;47.666;9.160;2022-09-28T04:29:37;1.10;;;0.97;;
12770;SDS011;6449;47.666;9.160;2022-09-28T04:34:35;1.10;;;1.00;;
12770;SDS011;6449;47.666;9.160;2022-09-28T04:39:34;1.77;;;1.17;;
12770;SDS011;6449;47.666;9.160;2022-09-28T04:49:33;1.43;;;0.93;;
12770;SDS011;6449;47.666;9.160;2022-09-28T04:54:28;2.40;;;2.20;;
12770;SDS011;6449;47.666;9.160;2022-09-28T04:59:22;5.00;;;4.60;;
12770;SDS011;6449;47.666;9.160;2022-09-28T05:04:16;7.63;;;5.70;;
12770;SDS011;6449;47.666;9.160;2022-09-28T05:14:27;1.50;;;1.40;;
12770;SDS011;6449;47.666;9.160;2022-09-28T05:19:21;1.70;;;1.60;;
12770;SDS011;6449;47.666;9.160;2022-09-28T05:24:14;3.40;;;2.00;;
12770;SDS011;6449;47.666;9.160;2022-09-28T05:29:08;3.60;;;1.90;;
12770;SDS011;6449;47.666;9.160;2022-09-28T05:34:03;4.47;;;2.60;;
12770;SDS011;6449;47.666;9.160;2022-09-28T05:38:56;1.90;;;1.23;;
12770;SDS011;6449;47.666;9.160;2022-09-28T05:43:50;2.70;;;2.10;;
12770;SDS011;6449;47.666;9.160;2022-09-28T05:48:45;2.10;;;1.60;;
12770;SDS011;6449;47.666;9.160;2022-09-28T05:53:40;0.90;;;0.87;;
12770;SDS011;6449;47.666;9.160;2022-09-28T05:58:33;1.53;;;0.93;;
12770;SDS011;6449;47.666;9.160;2022-09-28T06:03:27;1.40;;;1.30;;
12770;SDS011;6449;47.666;9.160;2022-09-28T06:08:20;1.70;;;1.30;;
12770;SDS011;6449;47.666;9.160;2022-09-28T06:13:15;1.57;;;1.23;;
12770;SDS011;6449;47.666;9.160;2022-09-28T06:18:09;2.43;;;1.83;;
12770;SDS011;6449;47.666;9.160;2022-09-28T06:23:05;1.53;;;1.30;;
12770;SDS011;6449;47.666;9.160;2022-09-28T06:27:59;0.83;;;0.83;;
12770;SDS011;6449;47.666;9.160;2022-09-28T06:32:57;0.97;;;0.90;;
12770;SDS011;6449;47.666;9.160;2022-09-28T06:37:52;0.70;;;0.70;;
12770;SDS011;6449;47.666;9.160;2022-09-28T06:42:53;0.80;;;0.80;;
12770;SDS011;6449;47.666;9.160;2022-09-28T06:47:51;0.87;;;0.80;;
12770;SDS011;6449;47.666;9.160;2022-09-28T06:52:49;1.00;;;0.90;;
12770;SDS011;6449;47.666;9.160;2022-09-28T06:57:44;1.30;;;1.20;;
12770;SDS011;6449;47.666;9.160;2022-09-28T07:02:38;2.30;;;2.00;;
12770;SDS011;6449;47.666;9.160;2022-09-28T07:07:32;1.30;;;1.20;;
12770;SDS011;6449;47.666;9.160;2022-09-28T07:12:27;2.10;;;1.90;;
12770;SDS011;6449;47.666;9.160;2022-09-28T07:17:20;2.90;;;2.53;;
12770;SDS011;6449;47.666;9.160;2022-09-28T07:22:14;0.93;;;0.70;;
12770;SDS011;6449;47.666;9.160;2022-09-28T07:27:10;4.70;;;2.63;;
12770;SDS011;6449;47.666;9.160;2022-09-28T07:32:05;2.53;;;1.33;;
12770;SDS011;6449;47.666;9.160;2022-09-28T07:36:58;0.80;;;0.80;;
12770;SDS011;6449;47.666;9.160;2022-09-28T07:41:52;1.50;;;1.37;;
12770;SDS011;6449;47.666;9.160;2022-09-28T07:49:10;3.03;;;1.83;;
12770;SDS011;6449;47.666;9.160;2022-09-28T08:20:27;0.83;;;0.83;;
12770;SDS011;6449;47.666;9.160;2022-09-28T08:26:16;0.87;;;0.87;;
12770;SDS011;6449;47.666;9.160;2022-09-28T08:44:29;0.43;;;0.40;;
12770;SDS011;6449;47.666;9.160;2022-09-28T08:49:37;0.77;;;0.60;;
12770;SDS011;6449;47.666;9.160;2022-09-28T08:54:38;0.60;;;0.60;;
12770;SDS011;6449;47.666;9.160;2022-09-28T08:59:44;0.80;;;0.80;;
12770;SDS011;6449;47.666;9.160;2022-09-28T09:04:43;0.93;;;0.70;;
12770;SDS011;6449;47.666;9.160;2022-09-28T09:09:40;0.70;;;0.70;;
12770;SDS011;6449;47.666;9.160;2022-09-28T09:15:04;0.63;;;0.63;;
12770;SDS011;6449;47.666;9.160;2022-09-28T09:20:32;0.40;;;0.40;;
12770;SDS011;6449;47.666;9.160;2022-09-28T09:25:39;0.70;;;0.70;;
12770;SDS011;6449;47.666;9.160;2022-09-28T09:30:37;0.50;;;0.50;;
12770;SDS011;6449;47.666;9.160;2022-09-28T09:35:50;0.40;;;0.40;;
12770;SDS011;6449;47.666;9.160;2022-09-28T09:41:06;1.03;;;0.40;;
12770;SDS011;6449;47.666;9.160;2022-09-28T09:46:15;0.30;;;0.30;;
12770;SDS011;6449;47.666;9.160;2022-09-28T09:51:22;0.17;;;0.17;;
12770;SDS011;6449;47.666;9.160;2022-09-28T09:56:28;0.30;;;0.30;;
12770;SDS011;6449;47.666;9.160;2022-09-28T10:01:38;1.03;;;0.20;;
12770;SDS011;6449;47.666;9.160;2022-09-28T10:06:33;0.30;;;0.30;;
12770;SDS011;6449;47.666;9.160;2022-09-28T10:11:30;0.30;;;0.30;;
12770;SDS011;6449;47.666;9.160;2022-09-28T10:21:27;1.80;;;0.63;;
12770;SDS011;6449;47.666;9.160;2022-09-28T10:26:29;0.37;;;0.37;;
12770;SDS011;6449;47.666;9.160;2022-09-28T10:31:35;0.40;;;0.40;;
12770;SDS011;6449;47.666;9.160;2022-09-28T10:36:43;0.40;;;0.33;;
12770;SDS011;6449;47.666;9.160;2022-09-28T10:41:47;1.67;;;0.37;;
12770;SDS011;6449;47.666;9.160;2022-09-28T10:46:41;1.40;;;0.70;;
12770;SDS011;6449;47.666;9.160;2022-09-28T10:51:40;1.40;;;0.40;;
12770;SDS011;6449;47.666;9.160;2022-09-28T10:56:37;1.27;;;0.73;;
12770;SDS011;6449;47.666;9.160;2022-09-28T11:01:32;0.77;;;0.40;;
12770;SDS011;6449;47.666;9.160;2022-09-28T11:06:26;0.80;;;0.60;;
12770;SDS011;6449;47.666;9.160;2022-09-28T11:16:44;0.53;;;0.53;;
12770;SDS011;6449;47.666;9.160;2022-09-28T11:21:41;0.50;;;0.40;;
12770;SDS011;6449;47.666;9.160;2022-09-28T11:26:37;0.60;;;0.40;;
12770;SDS011;6449;47.666;9.160;2022-09-28T11:31:34;1.27;;;0.60;;
12770;SDS011;6449;47.666;9.160;2022-09-28T11:36:33;1.03;;;0.50;;
12770;SDS011;6449;47.666;9.160;2022-09-28T11:41:54;0.70;;;0.60;;
12770;SDS011;6449;47.666;9.160;2022-09-28T11:47:10;0.70;;;0.70;;
12770;SDS011;6449;47.666;9.160;2022-09-28T11:52:46;0.50;;;0.40;;
12770;SDS011;6449;47.666;9.160;2022-09-28T11:57:50;0.50;;;0.50;;
12770;SDS011;6449;47.666;9.160;2022-09-28T12:02:54;0.93;;;0.67;;
12770;SDS011;6449;47.666;9.160;2022-09-28T12:08:00;0.67;;;0.63;;
12770;SDS011;6449;47.666;9.160;2022-09-28T12:13:05;1.93;;;0.60;;
12770;SDS011;6449;47.666;9.160;2022-09-28T12:18:05;0.80;;;0.60;;
12770;SDS011;6449;47.666;9.160;2022-09-28T12:23:10;0.40;;;0.40;;
12770;SDS011;6449;47.666;9.160;2022-09-28T12:28:23;0.73;;;0.60;;
12770;SDS011;6449;47.666;9.160;2022-09-28T12:38:48;2.27;;;0.80;;
12770;SDS011;6449;47.666;9.160;2022-09-28T12:44:26;0.97;;;0.80;;
12770;SDS011;6449;47.666;9.160;2022-09-28T12:49:55;0.50;;;0.50;;
12770;SDS011;6449;47.666;9.160;2022-09-28T13:00:48;0.30;;;0.30;;
12770;SDS011;6449;47.666;9.160;2022-09-28T13:11:36;1.60;;;0.47;;
12770;SDS011;6449;47.666;9.160;2022-09-28T13:16:59;0.50;;;0.43;;
12770;SDS011;6449;47.666;9.160;2022-09-28T13:31:53;0.40;;;0.40;;
12770;SDS011;6449;47.666;9.160;2022-09-28T13:37:09;0.40;;;0.40;;
12770;SDS011;6449;47.666;9.160;2022-09-28T13:53:10;0.47;;;0.47;;
12770;SDS011;6449;47.666;9.160;2022-09-28T13:58:19;1.90;;;0.53;;
12770;SDS011;6449;47.666;9.160;2022-09-28T14:03:24;1.20;;;1.03;;
12770;SDS011;6449;47.666;9.160;2022-09-28T14:08:34;0.80;;;0.80;;
12770;SDS011;6449;47.666;9.160;2022-09-28T14:18:58;7.17;;;1.00;;
12770;SDS011;6449;47.666;9.160;2022-09-28T14:24:03;1.00;;;0.73;;
12770;SDS011;6449;47.666;9.160;2022-09-28T14:29:22;1.57;;;0.60;;
12770;SDS011;6449;47.666;9.160;2022-09-28T14:34:23;0.57;;;0.57;;
12770;SDS011;6449;47.666;9.160;2022-09-28T14:39:25;0.50;;;0.40;;
12770;SDS011;6449;47.666;9.160;2022-09-28T14:50:32;1.10;;;0.50;;
12770;SDS011;6449;47.666;9.160;2022-09-28T14:55:27;2.83;;;0.80;;
12770;SDS011;6449;47.666;9.160;2022-09-28T15:00:30;2.30;;;0.60;;
12770;SDS011;6449;47.666;9.160;2022-09-28T15:05:37;2.70;;;0.60;;
12770;SDS011;6449;47.666;9.160;2022-09-28T15:10:39;2.80;;;0.50;;
12770;SDS011;6449;47.666;9.160;2022-09-28T15:15:45;1.40;;;0.63;;
12770;SDS011;6449;47.666;9.160;2022-09-28T15:20:48;3.33;;;1.97;;
12770;SDS011;6449;47.666;9.160;2022-09-28T15:25:49;0.73;;;0.63;;
12770;SDS011;6449;47.666;9.160;2022-09-28T15:30:44;1.60;;;1.50;;
12770;SDS011;6449;47.666;9.160;2022-09-28T15:35:38;13.57;;;12.10;;
12770;SDS011;6449;47.666;9.160;2022-09-28T15:40:33;42.83;;;33.00;;
12770;SDS011;6449;47.666;9.160;2022-09-28T15:45:30;11.60;;;9.50;;
12770;SDS011;6449;47.666;9.160;2022-09-28T15:50:33;5.67;;;4.17;;
12770;SDS011;6449;47.666;9.160;2022-09-28T15:55:29;2.60;;;2.40;;
12770;SDS011;6449;47.666;9.160;2022-09-28T16:00:27;5.83;;;3.07;;
12770;SDS011;6449;47.666;9.160;2022-09-28T16:05:29;2.10;;;1.80;;
12770;SDS011;6449;47.666;9.160;2022-09-28T16:10:41;4.50;;;2.37;;
12770;SDS011;6449;47.666;9.160;2022-09-28T16:16:02;1.93;;;1.40;;
12770;SDS011;6449;47.666;9.160;2022-09-28T16:21:22;3.97;;;2.90;;
12770;SDS011;6449;47.666;9.160;2022-09-28T16:26:35;5.80;;;4.53;;
12770;SDS011;6449;47.666;9.160;2022-09-28T16:31:30;5.33;;;4.50;;
12770;SDS011;6449;47.666;9.160;2022-09-28T16:36:37;5.47;;;3.43;;
12770;SDS011;6449;47.666;9.160;2022-09-28T16:41:37;2.43;;;2.23;;
12770;SDS011;6449;47.666;9.160;2022-09-28T16:46:34;2.50;;;1.90;;
12770;SDS011;6449;47.666;9.160;2022-09-28T16:51:32;10.87;;;10.07;;
12770;SDS011;6449;47.666;9.160;2022-09-28T16:57:01;4.63;;;2.30;;
12770;SDS011;6449;47.666;9.160;2022-09-28T17:02:12;2.30;;;1.53;;
12770;SDS011;6449;47.666;9.160;2022-09-28T17:07:29;1.20;;;1.10;;
12770;SDS011;6449;47.666;9.160;2022-09-28T17:12:28;1.40;;;1.00;;
12770;SDS011;6449;47.666;9.160;2022-09-28T17:17:21;1.10;;;1.00;;
12770;SDS011;6449;47.666;9.160;2022-09-28T17:22:22;1.20;;;1.10;;
12770;SDS011;6449;47.666;9.160;2022-09-28T17:27:25;1.60;;;1.50;;
12770;SDS011;6449;47.666;9.160;2022-09-28T17:32:29;1.40;;;1.30;;
12770;SDS011;6449;47.666;9.160;2022-09-28T17:37:58;4.03;;;1.20;;
12770;SDS011;6449;47.666;9.160;2022-09-28T17:42:46;1.97;;;1.30;;
12770;SDS011;6449;47.666;9.160;2022-09-28T17:47:47;2.30;;;2.10;;
12770;SDS011;6449;47.666;9.160;2022-09-28T17:52:40;4.00;;;3.70;;
12770;SDS011;6449;47.666;9.160;2022-09-28T17:57:34;9.10;;;7.27;;
12770;SDS011;6449;47.666;9.160;2022-09-28T18:02:28;3.67;;;3.33;;
12770;SDS011;6449;47.666;9.160;2022-09-28T18:07:22;1.60;;;1.30;;
12770;SDS011;6449;47.666;9.160;2022-09-28T18:12:16;1.37;;;1.27;;
12770;SDS011;6449;47.666;9.160;2022-09-28T18:17:10;1.30;;;1.20;;
12770;SDS011;6449;47.666;9.160;2022-09-28T18:22:08;1.77;;;1.50;;
12770;SDS011;6449;47.666;9.160;2022-09-28T18:27:02;3.23;;;1.50;;
12770;SDS011;6449;47.666;9.160;2022-09-28T18:31:55;3.43;;;1.40;;
12770;SDS011;6449;47.666;9.160;2022-09-28T18:36:48;1.50;;;1.40;;
12770;SDS011;6449;47.666;9.160;2022-09-28T18:41:43;1.30;;;1.20;;
12770;SDS011;6449;47.666;9.160;2022-09-28T18:46:36;1.80;;;1.70;;
12770;SDS011;6449;47.666;9.160;2022-09-28T18:51:31;4.17;;;3.77;;
12770;SDS011;6449;47.666;9.160;2022-09-28T18:56:24;2.33;;;2.07;;
12770;SDS011;6449;47.666;9.160;2022-09-28T19:01:20;1.93;;;1.70;;
12770;SDS011;6449;47.666;9.160;2022-09-28T19:06:22;1.80;;;1.60;;
12770;SDS011;6449;47.666;9.160;2022-09-28T19:11:15;2.13;;;1.90;;
12770;SDS011;6449;47.666;9.160;2022-09-28T19:16:09;2.27;;;2.07;;
12770;SDS011;6449;47.666;9.160;2022-09-28T19:21:08;2.20;;;2.00;;
12770;SDS011;6449;47.666;9.160;2022-09-28T19:26:04;2.37;;;1.80;;
12770;SDS011;6449;47.666;9.160;2022-09-28T19:31:02;2.77;;;1.73;;
12770;SDS011;6449;47.666;9.160;2022-09-28T19:35:59;8.53;;;6.73;;
12770;SDS011;6449;47.666;9.160;2022-09-28T19:40:59;32.50;;;20.83;;
12770;SDS011;6449;47.666;9.160;2022-09-28T19:45:54;37.53;;;21.17;;
12770;SDS011;6449;47.666;9.160;2022-09-28T19:50:52;12.03;;;8.20;;
12770;SDS011;6449;47.666;9.160;2022-09-28T19:55:51;14.97;;;9.93;;
12770;SDS011;6449;47.666;9.160;2022-09-28T20:00:47;2.80;;;2.23;;
12770;SDS011;6449;47.666;9.160;2022-09-28T20:05:43;2.17;;;1.97;;
12770;SDS011;6449;47.666;9.160;2022-09-28T20:10:44;3.10;;;1.97;;
12770;SDS011;6449;47.666;9.160;2022-09-28T20:15:41;1.87;;;1.70;;
12770;SDS011;6449;47.666;9.160;2022-09-28T20:20:36;1.87;;;1.63;;
12770;SDS011;6449;47.666;9.160;2022-09-28T20:30:30;1.50;;;1.40;;
12770;SDS011;6449;47.666;9.160;2022-09-28T21:37:08;2.83;;;2.20;;
12770;SDS011;6449;47.666;9.160;2022-09-28T22:23:24;3.37;;;1.53;;
12770;SDS011;6449;47.666;9.160;2022-09-28T22:28:20;3.10;;;1.30;;
12770;SDS011;6449;47.666;9.160;2022-09-28T22:33:13;2.83;;;1.30;;
12770;SDS011;6449;47.666;9.160;2022-09-28T22:38:06;4.20;;;1.50;;
12770;SDS011;6449;47.666;9.160;2022-09-28T23:08:58;7.00;;;1.57;;
12770;SDS011;6449;47.666;9.160;2022-09-28T23:13:56;12.50;;;5.30;;
12770;SDS011;6449;47.666;9.160;2022-09-28T23:18:51;6.17;;;4.40;;
12770;SDS011;6449;47.666;9.160;2022-09-28T23:23:49;4.33;;;2.23;;
12770;SDS011;6449;47.666;9.160;2022-09-28T23:28:46;1.83;;;1.10;;
12770;SDS011;6449;47.666;9.160;2022-09-28T23:33:39;2.10;;;1.10;;
12770;SDS011;6449;47.666;9.160;2022-09-28T23:38:33;1.10;;;1.00;;
12770;SDS011;6449;47.666;9.160;2022-09-28T23:43:28;2.93;;;1.50;;
12770;SDS011;6449;47.666;9.160;2022-09-28T23:48:23;7.00;;;4.87;;
12770;SDS011;6449;47.666;9.160;2022-09-28T23:53:17;7.20;;;3.43;;
12770;SDS011;6449;47.666;9.160;2022-09-28T23:58:10;3.00;;;2.17;;
